Time;durP1;ratioP1;P1;durP2;ratioP2;P2;SDS_P1;SDS_P2;PMS_P1;PMS_P2;Temp;Humidity;BMP_temperature;BMP_pressure;BME280_temperature;BME280_humidity;BME280_pressure;Samples;Min_cycle;Max_cycle;Signal;HPM_P1;HPM_P2
2023/10/11 00:02:19;;;;;;;16.83;6.10;;;14.10;99.90;;;;;;1940278;73;25237;-90
2023/10/11 00:08:40;;;;;;;27.80;5.60;;;14.10;99.90;;;;;;2000181;71;27564;-90
2023/10/11 00:11:30;;;;;;;23.17;6.10;;;14.10;99.90;;;;;;2043323;69;25213;-90
2023/10/11 00:14:19;;;;;;;21.93;6.43;;;14.10;99.90;;;;;;2036656;69;25378;-90
2023/10/11 00:17:08;;;;;;;23.13;6.30;;;14.10;99.90;;;;;;2034103;69;25739;-90
2023/10/11 00:19:58;;;;;;;25.00;5.57;;;14.10;99.90;;;;;;2036800;69;25169;-90
2023/10/11 00:22:48;;;;;;;30.00;5.40;;;14.20;99.90;;;;;;2068002;68;25126;-90
2023/10/11 00:25:39;;;;;;;21.77;5.60;;;14.10;99.90;;;;;;2039496;69;25648;-90
2023/10/11 00:28:31;;;;;;;27.57;5.87;;;14.20;99.90;;;;;;2043063;69;25154;-90
2023/10/11 00:31:20;;;;;;;24.43;6.23;;;14.20;99.90;;;;;;2039524;69;25149;-90
2023/10/11 00:34:12;;;;;;;19.03;6.20;;;14.20;99.90;;;;;;2040695;69;25222;-90
2023/10/11 00:37:02;;;;;;;28.23;6.40;;;14.20;99.90;;;;;;2056860;69;25285;-90
2023/10/11 00:43:58;;;;;;;27.43;6.10;;;14.30;99.90;;;;;;1975449;71;26647;-90
2023/10/11 00:46:57;;;;;;;26.70;6.43;;;14.30;99.90;;;;;;2024926;69;25197;-90
2023/10/11 00:49:45;;;;;;;25.50;6.07;;;14.20;99.90;;;;;;2009727;69;25271;-90
2023/10/11 00:52:34;;;;;;;36.10;6.57;;;14.30;99.90;;;;;;2022400;70;25164;-90
2023/10/11 00:55:23;;;;;;;24.03;6.13;;;14.30;99.90;;;;;;1982564;70;25237;-90
2023/10/11 00:58:15;;;;;;;26.37;5.30;;;14.20;99.90;;;;;;2023889;69;25711;-90
2023/10/11 01:03:47;;;;;;;20.97;5.57;;;14.20;99.90;;;;;;1991894;71;27430;-90
2023/10/11 01:06:36;;;;;;;22.97;5.50;;;14.20;99.90;;;;;;1941255;72;25674;-91
2023/10/11 01:09:28;;;;;;;30.47;6.23;;;14.30;99.90;;;;;;1940251;73;25722;-91
2023/10/11 01:12:16;;;;;;;28.30;6.13;;;14.20;99.90;;;;;;1952178;73;25225;-91
2023/10/11 01:15:11;;;;;;;25.23;5.83;;;14.20;99.90;;;;;;1936745;73;25492;-91
2023/10/11 01:17:57;;;;;;;19.47;5.87;;;14.20;99.90;;;;;;1953327;73;25247;-91
2023/10/11 01:20:45;;;;;;;31.57;6.40;;;14.20;99.90;;;;;;1949713;73;25718;-91
2023/10/11 01:28:48;;;;;;;39.87;6.43;;;14.20;99.90;;;;;;1947702;72;27276;-89
2023/10/11 01:31:38;;;;;;;23.43;5.63;;;14.20;99.90;;;;;;1963768;72;25135;-89
2023/10/11 01:34:30;;;;;;;26.37;6.37;;;14.20;99.90;;;;;;2019855;70;25683;-89
2023/10/11 01:37:17;;;;;;;30.60;6.13;;;14.30;99.90;;;;;;2052173;69;25192;-89
2023/10/11 01:40:09;;;;;;;29.63;7.20;;;14.30;99.90;;;;;;2038523;69;25708;-89
2023/10/11 01:42:58;;;;;;;33.67;6.43;;;14.30;99.90;;;;;;2009074;69;25241;-89
2023/10/11 01:45:50;;;;;;;31.87;6.80;;;14.20;99.90;;;;;;2010363;69;25214;-89
2023/10/11 01:48:39;;;;;;;30.93;6.23;;;14.30;99.90;;;;;;2019484;69;25138;-89
2023/10/11 01:51:28;;;;;;;38.70;6.87;;;14.30;99.90;;;;;;2005667;69;25246;-89
2023/10/11 01:57:02;;;;;;;29.93;6.33;;;14.30;99.90;;;;;;1959487;72;26872;-90
2023/10/11 02:03:14;;;;;;;23.07;6.00;;;14.30;99.90;;;;;;1981063;71;27018;-89
2023/10/11 02:06:05;;;;;;;23.60;6.40;;;14.30;99.90;;;;;;1961837;72;25178;-90
2023/10/11 02:11:35;;;;;;;33.80;6.63;;;14.20;99.90;;;;;;1933623;72;27025;-90
2023/10/11 02:14:25;;;;;;;32.90;7.00;;;14.30;99.90;;;;;;1910456;75;25270;-90
2023/10/11 02:17:17;;;;;;;25.17;6.90;;;14.30;99.90;;;;;;1905118;75;25225;-88
2023/10/11 02:20:11;;;;;;;27.40;6.30;;;14.30;99.90;;;;;;1899465;75;25249;-90
2023/10/11 02:22:59;;;;;;;34.93;7.47;;;14.20;99.90;;;;;;1903297;74;25185;-90
2023/10/11 02:25:48;;;;;;;30.00;6.97;;;14.20;99.90;;;;;;1907170;74;25642;-89
2023/10/11 02:28:38;;;;;;;33.00;7.00;;;14.30;99.90;;;;;;1904213;74;25688;-90
2023/10/11 02:31:31;;;;;;;28.00;6.73;;;14.30;99.90;;;;;;1900203;74;26468;-89
2023/10/11 02:34:20;;;;;;;26.63;6.43;;;14.30;99.90;;;;;;1923347;74;25754;-90
2023/10/11 02:37:11;;;;;;;33.37;8.10;;;14.20;99.90;;;;;;1908469;74;25638;-90
2023/10/11 02:40:00;;;;;;;27.87;7.13;;;14.20;99.90;;;;;;1916745;74;25823;-90
2023/10/11 02:42:50;;;;;;;31.53;6.87;;;14.30;99.90;;;;;;1879316;76;25286;-90
2023/10/11 02:45:41;;;;;;;35.33;7.23;;;14.30;99.90;;;;;;1879205;76;25295;-90
2023/10/11 02:48:29;;;;;;;30.47;7.03;;;14.20;99.90;;;;;;1879434;75;25312;-90
2023/10/11 02:51:24;;;;;;;34.37;7.13;;;14.30;99.90;;;;;;1875361;75;25324;-90
2023/10/11 02:58:05;;;;;;;26.03;6.40;;;14.30;99.90;;;;;;1973938;71;26430;-90
2023/10/11 03:00:44;;;;;;;34.63;7.80;;;14.30;99.90;;;;;;1941269;73;25291;-90
2023/10/11 03:17:31;;;;;;;28.40;6.97;;;14.30;99.90;;;;;;1856167;74;27170;-89
2023/10/11 03:26:16;;;;;;;29.60;6.37;;;14.30;99.90;;;;;;1947237;72;26648;-90
2023/10/11 03:29:03;;;;;;;26.37;6.10;;;14.30;99.90;;;;;;1897299;73;25237;-90
2023/10/11 03:31:50;;;;;;;28.70;5.83;;;14.40;99.90;;;;;;1928768;73;25248;-90
2023/10/11 03:34:38;;;;;;;17.37;5.23;;;14.30;99.90;;;;;;1892144;75;25737;-90
2023/10/11 03:37:28;;;;;;;23.47;5.73;;;14.30;99.90;;;;;;1914496;73;25265;-90
2023/10/11 03:40:27;;;;;;;22.97;4.60;;;14.30;99.90;;;;;;1909038;73;25729;-89
2023/10/11 03:43:16;;;;;;;21.63;6.10;;;14.40;99.90;;;;;;1910434;75;25267;-90
2023/10/11 04:01:36;;;;;;;16.17;4.50;;;14.30;99.90;;;;;;1913521;73;26406;-90
2023/10/11 04:07:06;;;;;;;14.20;4.20;;;14.20;99.90;;;;;;1924261;74;28738;-90
2023/10/11 04:10:04;;;;;;;17.53;4.47;;;14.20;99.90;;;;;;1872766;76;25301;-90
2023/10/11 04:12:45;;;;;;;14.87;4.33;;;14.20;99.90;;;;;;1889964;74;25744;-90
2023/10/11 04:15:35;;;;;;;13.10;4.30;;;14.20;99.90;;;;;;1906994;74;25261;-90
2023/10/11 04:32:56;;;;;;;12.60;4.50;;;14.20;99.90;;;;;;1946462;73;26307;-91
2023/10/11 04:59:46;;;;;;;21.00;5.97;;;14.10;99.90;;;;;;1937287;73;25239;-91
2023/10/11 05:02:41;;;;;;;24.63;6.07;;;14.00;99.90;;;;;;1934023;73;25246;-91
2023/10/11 05:05:34;;;;;;;19.27;6.30;;;14.00;99.90;;;;;;1934617;73;25679;-91
2023/10/11 05:08:50;;;;;;;17.23;4.50;;;13.90;99.90;;;;;;1918855;73;25213;-91
2023/10/11 05:11:32;;;;;;;22.07;6.80;;;13.90;99.90;;;;;;1922495;73;25223;-91
2023/10/11 05:14:37;;;;;;;22.47;6.80;;;13.80;99.90;;;;;;1928666;73;25236;-91
2023/10/11 05:17:50;;;;;;;24.80;7.03;;;13.80;99.90;;;;;;1926740;73;25211;-91
2023/10/11 05:24:14;;;;;;;28.73;7.27;;;13.70;99.90;;;;;;1942771;73;25591;-91
2023/10/11 05:27:39;;;;;;;31.27;8.73;;;13.70;99.90;;;;;;1944790;73;25200;-91
2023/10/11 05:30:29;;;;;;;35.03;8.87;;;13.80;99.90;;;;;;1932509;73;25260;-91
2023/10/11 05:50:50;;;;;;;37.97;8.93;;;13.80;99.90;;;;;;1957687;72;27497;-90
2023/10/11 05:53:40;;;;;;;30.93;8.07;;;14.00;99.90;;;;;;1953352;72;25306;-89
2023/10/11 06:00:25;;;;;;;17.93;5.70;;;14.10;99.90;;;;;;2054233;69;25253;-89
2023/10/11 06:03:20;;;;;;;36.10;7.20;;;14.20;99.90;;;;;;2048945;69;25654;-89
2023/10/11 06:06:38;;;;;;;22.43;7.10;;;14.20;99.90;;;;;;2049416;69;26504;-89
2023/10/11 06:09:39;;;;;;;25.03;6.60;;;14.20;99.90;;;;;;2025795;69;25254;-89
2023/10/11 06:15:26;;;;;;;29.40;5.43;;;14.20;99.90;;;;;;1953586;72;27116;-90
2023/10/11 06:24:14;;;;;;;13.13;5.00;;;14.30;99.90;;;;;;2076116;68;27603;-90
2023/10/11 06:28:09;;;;;;;15.37;4.87;;;14.30;99.90;;;;;;2043907;69;25247;-91
2023/10/11 06:30:17;;;;;;;13.37;4.47;;;14.20;99.90;;;;;;2051371;68;25605;-89
2023/10/11 06:33:12;;;;;;;8.80;3.57;;;14.20;99.90;;;;;;2056415;68;25238;-90
2023/10/11 06:36:01;;;;;;;14.03;3.63;;;14.20;99.90;;;;;;2052303;69;25204;-90
2023/10/11 06:38:52;;;;;;;12.50;3.33;;;14.20;99.90;;;;;;2058127;69;25185;-90
2023/10/11 06:41:50;;;;;;;10.17;2.90;;;14.30;99.90;;;;;;2042257;69;25203;-90
2023/10/11 06:44:47;;;;;;;10.37;3.87;;;14.30;99.90;;;;;;2039077;69;25164;-90
2023/10/11 06:50:52;;;;;;;10.60;2.47;;;14.40;99.90;;;;;;1948685;72;27179;-90
2023/10/11 06:53:47;;;;;;;11.33;3.40;;;14.50;99.90;;;;;;1925919;73;25214;-90
2023/10/11 06:56:42;;;;;;;9.47;2.73;;;14.50;99.90;;;;;;1936960;73;25175;-90
2023/10/11 06:59:41;;;;;;;12.77;3.03;;;14.50;99.90;;;;;;1920316;73;25321;-90
2023/10/11 07:02:32;;;;;;;12.37;2.97;;;14.50;99.90;;;;;;1920832;73;25767;-90
2023/10/11 07:05:25;;;;;;;9.93;2.40;;;14.60;99.90;;;;;;1926861;73;25305;-90
2023/10/11 07:08:18;;;;;;;14.50;3.00;;;14.60;99.90;;;;;;1922562;73;26462;-90
2023/10/11 07:11:16;;;;;;;5.73;2.50;;;14.60;99.90;;;;;;1935841;73;25757;-90
2023/10/11 07:17:00;;;;;;;12.13;3.10;;;14.50;99.90;;;;;;1943869;72;28939;-90
2023/10/11 07:19:50;;;;;;;8.03;2.33;;;14.50;99.90;;;;;;1931797;73;25205;-91
2023/10/11 07:22:45;;;;;;;9.93;2.80;;;14.50;99.90;;;;;;1926923;73;25730;-91
2023/10/11 07:25:45;;;;;;;8.53;2.57;;;14.60;99.90;;;;;;1931229;73;25204;-90
2023/10/11 07:28:37;;;;;;;16.57;3.00;;;14.60;99.90;;;;;;1924599;73;25830;-91
2023/10/11 07:31:32;;;;;;;9.60;2.93;;;14.60;99.90;;;;;;1920055;73;25217;-92
2023/10/11 07:34:25;;;;;;;12.30;2.83;;;14.60;99.90;;;;;;1939539;73;25321;-92
2023/10/11 07:37:13;;;;;;;17.63;2.60;;;14.60;99.90;;;;;;1890131;75;25718;-89
2023/10/11 07:53:32;;;;;;;11.23;2.83;;;14.60;99.90;;;;;;1920765;72;27161;-90
2023/10/11 07:59:01;;;;;;;14.27;2.90;;;14.60;99.90;;;;;;1949589;72;27569;-89
2023/10/11 08:01:53;;;;;;;8.97;2.40;;;14.60;99.90;;;;;;1939197;73;26072;-90
2023/10/11 08:04:47;;;;;;;8.57;2.63;;;14.60;99.90;;;;;;1924661;73;25763;-90
2023/10/11 08:07:37;;;;;;;13.43;2.63;;;14.60;99.90;;;;;;1941127;73;25705;-89
2023/10/11 08:10:33;;;;;;;10.33;2.50;;;14.60;99.90;;;;;;1925418;72;25174;-89
2023/10/11 08:16:13;;;;;;;10.40;2.70;;;14.70;99.90;;;;;;1952905;72;26619;-90
2023/10/11 08:18:56;;;;;;;11.23;2.27;;;14.70;99.90;;;;;;1920377;73;25247;-90
2023/10/11 08:21:59;;;;;;;4.43;2.03;;;14.80;99.90;;;;;;1923658;73;25215;-90
2023/10/11 08:24:50;;;;;;;13.37;2.73;;;14.80;99.90;;;;;;1917169;73;25294;-90
2023/10/11 08:30:31;;;;;;;11.93;2.43;;;14.80;99.90;;;;;;1953505;72;27349;-90
2023/10/11 08:33:22;;;;;;;12.77;2.63;;;14.80;99.90;;;;;;1920020;73;25641;-90
2023/10/11 08:38:53;;;;;;;8.20;1.80;;;14.70;99.90;;;;;;1915626;72;27165;-90
2023/10/11 08:41:45;;;;;;;8.10;2.17;;;14.70;99.90;;;;;;1864026;76;25331;-90
2023/10/11 08:47:19;;;;;;;3.73;1.70;;;14.80;99.90;;;;;;1945229;72;27462;-90
2023/10/11 08:50:17;;;;;;;4.43;1.60;;;14.80;99.90;;;;;;1910187;74;25717;-90
2023/10/11 08:56:02;;;;;;;6.17;1.50;;;15.10;99.90;;;;;;1957356;72;28685;-90
2023/10/11 09:02:48;;;;;;;7.10;1.70;;;15.10;99.90;;;;;;1950102;72;25203;-90
2023/10/11 09:05:43;;;;;;;5.67;1.80;;;15.10;99.90;;;;;;1959141;72;25169;-90
2023/10/11 09:08:35;;;;;;;11.23;1.60;;;15.10;99.90;;;;;;1950228;72;25215;-90
2023/10/11 09:11:29;;;;;;;7.40;1.40;;;15.10;99.90;;;;;;1953204;72;25169;-90
2023/10/11 09:14:22;;;;;;;5.73;1.33;;;15.00;99.90;;;;;;1953534;72;25180;-90
2023/10/11 09:17:18;;;;;;;2.37;1.10;;;15.00;99.90;;;;;;1962695;72;25237;-90
2023/10/11 09:20:15;;;;;;;2.53;1.13;;;15.00;99.90;;;;;;1950924;72;25272;-90
2023/10/11 09:23:01;;;;;;;4.40;1.30;;;14.90;99.90;;;;;;1897210;75;25386;-90
2023/10/11 09:25:58;;;;;;;6.80;1.27;;;14.90;99.90;;;;;;1950401;72;25241;-90
2023/10/11 09:28:56;;;;;;;3.10;1.27;;;15.00;99.90;;;;;;1950105;72;25348;-90
2023/10/11 09:34:41;;;;;;;5.20;1.03;;;15.50;99.90;;;;;;1950110;72;27711;-90
2023/10/11 09:40:16;;;;;;;5.73;1.27;;;15.70;99.90;;;;;;1940263;72;27134;-91
2023/10/11 09:45:54;;;;;;;4.57;1.20;;;15.90;99.90;;;;;;1949956;72;27804;-90
2023/10/11 09:48:43;;;;;;;2.90;1.20;;;15.90;99.90;;;;;;1920829;73;25229;-90
2023/10/11 09:51:33;;;;;;;5.60;1.60;;;15.90;99.90;;;;;;1930647;73;25267;-90
2023/10/11 09:54:27;;;;;;;4.70;1.27;;;15.90;99.90;;;;;;1934084;73;25664;-90
2023/10/11 10:37:05;;;;;;;3.27;0.80;;;16.10;99.90;;;;;;1930507;73;27285;-90
2023/10/11 10:43:22;;;;;;;3.47;0.83;;;15.20;99.90;;;;;;1916071;73;28690;-90
2023/10/11 10:46:16;;;;;;;2.17;0.67;;;15.20;99.90;;;;;;1903682;73;25320;-91
2023/10/11 10:49:07;;;;;;;4.40;0.93;;;15.10;99.90;;;;;;1907445;73;25239;-90
2023/10/11 10:55:05;;;;;;;2.00;0.70;;;15.00;99.90;;;;;;1944304;72;29777;-92
2023/10/11 10:57:56;;;;;;;1.93;0.90;;;14.90;99.90;;;;;;1922993;73;25280;-92
2023/10/11 11:01:04;;;;;;;5.43;1.00;;;15.00;99.90;;;;;;1920849;73;25320;-92
2023/10/11 11:32:45;;;;;;;2.40;0.90;;;15.30;99.90;;;;;;1940431;72;27090;-90
2023/10/11 11:53:03;;;;;;;5.67;1.47;;;14.40;99.90;;;;;;1951784;72;27542;-90
2023/10/11 12:28:01;;;;;;;4.30;1.20;;;14.20;99.90;;;;;;1913367;74;27675;-90
2023/10/11 12:44:00;;;;;;;8.03;1.43;;;13.90;99.90;;;;;;1916682;73;27029;-90
2023/10/11 12:49:41;;;;;;;8.27;1.73;;;13.60;99.90;;;;;;1944238;72;27101;-90
2023/10/11 12:52:32;;;;;;;10.93;1.87;;;13.60;99.90;;;;;;1917102;73;25280;-90
2023/10/11 12:55:25;;;;;;;9.67;1.70;;;13.60;99.90;;;;;;1922031;73;25775;-90
2023/10/11 12:58:15;;;;;;;5.60;1.47;;;13.50;99.90;;;;;;1930818;73;25206;-90
2023/10/11 13:01:11;;;;;;;5.10;0.80;;;13.50;99.90;;;;;;1935492;73;25611;-90
2023/10/11 13:04:06;;;;;;;7.30;1.50;;;13.60;99.90;;;;;;1934564;73;25762;-90
2023/10/11 13:06:55;;;;;;;6.40;1.63;;;13.70;99.90;;;;;;1943219;73;25302;-90
2023/10/11 13:09:48;;;;;;;4.90;1.30;;;13.80;99.90;;;;;;1929635;73;25904;-90
2023/10/11 13:12:38;;;;;;;5.00;0.97;;;13.80;99.90;;;;;;1941088;73;25287;-90
2023/10/11 13:18:24;;;;;;;7.63;1.23;;;13.70;99.90;;;;;;1941318;72;29161;-90
2023/10/11 13:21:16;;;;;;;9.77;1.60;;;13.60;99.90;;;;;;1937907;73;26187;-91
2023/10/11 13:24:08;;;;;;;8.43;1.30;;;13.60;99.90;;;;;;1923421;73;25358;-90
2023/10/11 13:26:56;;;;;;;4.77;1.47;;;13.60;99.90;;;;;;1932118;73;25774;-90
2023/10/11 13:29:47;;;;;;;3.97;1.20;;;13.60;99.90;;;;;;1921081;73;25215;-90
2023/10/11 13:32:38;;;;;;;6.37;1.20;;;13.60;99.90;;;;;;1922407;73;25233;-90
2023/10/11 13:35:27;;;;;;;7.47;1.60;;;13.60;99.90;;;;;;1920499;73;25630;-90
2023/10/11 13:38:17;;;;;;;8.93;1.70;;;13.50;99.90;;;;;;1886472;75;25283;-90
2023/10/11 13:41:12;;;;;;;4.63;1.33;;;13.50;99.90;;;;;;1885408;75;25239;-90
2023/10/11 13:58:14;;;;;;;6.17;1.40;;;13.40;99.90;;;;;;1916556;73;27137;-90
2023/10/11 14:14:39;;;;;;;4.77;1.20;;;13.30;99.90;;;;;;1866286;72;27186;-91
2023/10/11 14:20:22;;;;;;;10.20;1.50;;;13.10;99.90;;;;;;1964831;72;26919;-90
2023/10/11 14:26:22;;;;;;;6.20;1.40;;;13.00;99.90;;;;;;1941805;72;27380;-91
2023/10/11 14:29:16;;;;;;;6.40;1.50;;;12.90;99.90;;;;;;1921806;73;25259;-92
2023/10/11 14:32:12;;;;;;;5.93;1.60;;;13.00;99.90;;;;;;1913504;72;25274;-91
2023/10/11 14:37:46;;;;;;;4.37;0.80;;;12.90;99.90;;;;;;1931142;72;27109;-91
2023/10/11 14:40:35;;;;;;;10.00;1.67;;;12.80;99.90;;;;;;1918761;73;25358;-91
2023/10/11 14:43:24;;;;;;;7.30;1.13;;;12.70;99.90;;;;;;1899488;73;25203;-91
2023/10/11 14:46:19;;;;;;;10.97;1.40;;;12.70;99.90;;;;;;1892097;75;25641;-91
2023/10/11 14:49:11;;;;;;;14.27;1.43;;;12.70;99.90;;;;;;1899344;75;25352;-92
2023/10/11 14:52:07;;;;;;;6.97;1.50;;;12.60;99.90;;;;;;1879791;75;25213;-91
2023/10/11 14:54:54;;;;;;;11.60;1.63;;;12.60;99.90;;;;;;1878958;75;25285;-91
2023/10/11 15:59:02;;;;;;;4.73;1.00;;;12.20;99.90;;;;;;1914714;74;26322;-91
2023/10/11 16:15:11;;;;;;;4.17;1.30;;;11.70;99.90;;;;;;1933245;73;27360;-90
2023/10/11 16:18:02;;;;;;;5.57;1.17;;;11.60;99.90;;;;;;1909939;75;25225;-90
2023/10/11 16:20:51;;;;;;;4.27;1.07;;;11.60;99.90;;;;;;1940848;73;25251;-92
2023/10/11 16:23:42;;;;;;;6.37;0.90;;;11.50;99.90;;;;;;1907648;75;25817;-89
2023/10/11 16:26:30;;;;;;;4.63;1.13;;;11.50;99.90;;;;;;1890012;74;25275;-92
2023/10/11 16:32:10;;;;;;;2.23;0.70;;;11.40;99.90;;;;;;1939206;72;26977;-90
2023/10/11 16:34:59;;;;;;;7.83;1.03;;;11.40;99.90;;;;;;1870182;75;26244;-90
2023/10/11 16:37:47;;;;;;;9.53;1.10;;;11.40;99.90;;;;;;1900057;74;25224;-90
2023/10/11 16:40:36;;;;;;;10.27;1.00;;;11.30;99.90;;;;;;1898916;75;25653;-90
2023/10/11 16:43:25;;;;;;;6.87;1.37;;;11.30;99.90;;;;;;1863797;76;25299;-90
2023/10/11 16:46:17;;;;;;;6.83;1.10;;;11.20;99.90;;;;;;1863980;76;25259;-90
2023/10/11 16:52:21;;;;;;;5.23;1.03;;;11.20;99.90;;;;;;1984347;71;27309;-89
2023/10/11 16:55:11;;;;;;;4.97;0.87;;;11.20;99.90;;;;;;1995825;70;25141;-90
2023/10/11 16:58:00;;;;;;;4.73;0.90;;;11.20;99.90;;;;;;2008656;71;25284;-90
2023/10/11 17:00:48;;;;;;;5.63;1.17;;;11.10;99.90;;;;;;1999961;71;25134;-89
2023/10/11 17:03:37;;;;;;;4.50;0.83;;;11.10;99.90;;;;;;1997217;70;25352;-90
2023/10/11 17:06:26;;;;;;;4.87;0.90;;;11.10;99.90;;;;;;2008107;71;25296;-90
2023/10/11 17:09:14;;;;;;;7.27;1.07;;;11.10;99.90;;;;;;2002256;70;26202;-90
2023/10/11 17:12:04;;;;;;;5.33;0.90;;;11.00;99.90;;;;;;2003010;71;25180;-89
2023/10/11 17:17:43;;;;;;;5.37;1.03;;;11.00;99.90;;;;;;1941844;72;27596;-91
2023/10/11 17:20:32;;;;;;;5.13;1.00;;;11.00;99.90;;;;;;1916471;73;25211;-92
2023/10/11 17:23:21;;;;;;;4.37;0.93;;;11.00;99.90;;;;;;1940438;73;25197;-90
2023/10/11 17:26:13;;;;;;;3.23;0.90;;;10.90;99.90;;;;;;1917450;73;25215;-92
2023/10/11 17:29:02;;;;;;;2.60;0.97;;;11.00;99.90;;;;;;1922714;73;25162;-90
2023/10/11 17:31:51;;;;;;;2.00;1.00;;;11.00;99.90;;;;;;1924969;73;25537;-90
2023/10/11 17:34:40;;;;;;;7.80;1.00;;;11.00;99.90;;;;;;1877006;75;25240;-90
2023/10/11 17:37:28;;;;;;;3.23;0.90;;;10.90;99.90;;;;;;1925079;73;25172;-90
2023/10/11 17:43:01;;;;;;;7.43;1.03;;;10.80;99.90;;;;;;1925227;72;27107;-90
2023/10/11 17:45:50;;;;;;;4.03;0.90;;;10.80;99.90;;;;;;1880454;75;25322;-90
2023/10/11 17:48:40;;;;;;;3.50;1.00;;;10.80;99.90;;;;;;1807322;77;25319;-90
2023/10/11 17:51:29;;;;;;;3.93;1.03;;;10.80;99.90;;;;;;1893409;75;25183;-92
2023/10/11 17:57:04;;;;;;;7.73;1.10;;;10.80;99.90;;;;;;1952908;72;26993;-90
2023/10/11 18:02:32;;;;;;;6.27;1.20;;;10.60;99.90;;;;;;1935403;72;27086;-90
2023/10/11 18:05:22;;;;;;;3.10;0.80;;;10.60;99.90;;;;;;1850384;76;25380;-90
2023/10/11 18:08:11;;;;;;;5.07;1.20;;;10.70;99.90;;;;;;1804322;78;25656;-90
2023/10/11 18:11:00;;;;;;;4.67;1.13;;;10.70;99.90;;;;;;1862805;75;25349;-90
2023/10/11 18:13:49;;;;;;;3.97;0.80;;;10.60;99.90;;;;;;1828881;76;25320;-89
2023/10/11 18:16:38;;;;;;;4.93;1.10;;;10.60;99.90;;;;;;1846457;77;25272;-90
2023/10/11 18:19:26;;;;;;;3.03;0.90;;;10.50;99.90;;;;;;1845072;76;25364;-90
2023/10/11 18:22:17;;;;;;;5.37;1.20;;;10.50;99.90;;;;;;1835209;76;25328;-90
2023/10/11 18:27:53;;;;;;;8.17;1.17;;;10.50;99.90;;;;;;1947765;72;27150;-90
2023/10/11 18:30:43;;;;;;;6.57;1.30;;;10.50;99.90;;;;;;1924600;73;25245;-90
2023/10/11 18:33:34;;;;;;;9.77;1.23;;;10.50;99.90;;;;;;1931660;73;25655;-90
2023/10/11 18:39:18;;;;;;;4.80;1.00;;;10.40;99.90;;;;;;1954667;72;27583;-90
2023/10/11 18:44:50;;;;;;;8.33;1.53;;;10.40;99.90;;;;;;1931475;72;27020;-90
2023/10/11 18:51:24;;;;;;;7.07;1.43;;;10.30;99.90;;;;;;1982413;71;26177;-90
2023/10/11 18:54:15;;;;;;;5.37;1.07;;;10.30;99.90;;;;;;1968638;72;25674;-90
2023/10/11 18:59:56;;;;;;;10.80;1.47;;;10.20;99.90;;;;;;1956340;72;27559;-90
2023/10/11 19:05:30;;;;;;;7.10;1.37;;;10.20;99.90;;;;;;1906179;74;27171;-89
2023/10/11 19:08:20;;;;;;;5.57;1.37;;;10.20;99.90;;;;;;1885982;75;25800;-90
2023/10/11 19:11:12;;;;;;;5.53;1.20;;;10.20;99.90;;;;;;1884141;75;25677;-92
2023/10/11 19:14:01;;;;;;;11.00;2.07;;;10.10;99.90;;;;;;1871954;75;25285;-90
2023/10/11 19:16:49;;;;;;;8.17;1.70;;;10.20;99.90;;;;;;1876162;75;25312;-90
2023/10/11 19:19:39;;;;;;;8.43;1.67;;;10.20;99.90;;;;;;1871034;75;25819;-90
2023/10/11 19:22:28;;;;;;;8.43;1.20;;;10.20;99.90;;;;;;1871853;75;25768;-90
2023/10/11 19:25:20;;;;;;;15.00;2.20;;;10.20;99.90;;;;;;1877637;75;25322;-91
2023/10/11 19:28:08;;;;;;;16.30;2.10;;;10.20;99.90;;;;;;1874001;75;25380;-91
2023/10/11 19:30:57;;;;;;;5.70;1.13;;;10.30;99.90;;;;;;1886363;75;25652;-91
2023/10/11 19:33:46;;;;;;;8.67;1.53;;;10.30;99.90;;;;;;1846173;77;25278;-91
2023/10/11 19:36:36;;;;;;;13.47;2.33;;;10.20;99.90;;;;;;1875070;75;25783;-91
2023/10/11 19:39:25;;;;;;;7.33;1.63;;;10.30;99.90;;;;;;1878080;75;25245;-91
2023/10/11 19:42:14;;;;;;;18.00;2.30;;;10.30;99.90;;;;;;1868566;75;25239;-91
2023/10/11 19:45:09;;;;;;;18.57;1.73;;;10.30;99.90;;;;;;1855586;75;25312;-91
2023/10/11 19:50:39;;;;;;;10.23;1.50;;;10.30;99.90;;;;;;1949151;72;27527;-90
2023/10/11 19:53:29;;;;;;;19.83;1.90;;;10.30;99.90;;;;;;1925898;73;25179;-91
2023/10/11 19:56:18;;;;;;;11.07;1.80;;;10.30;99.90;;;;;;1943081;73;25222;-91
2023/10/11 19:59:09;;;;;;;15.20;1.80;;;10.30;99.90;;;;;;1922866;73;25241;-92
2023/10/11 20:01:57;;;;;;;9.57;1.73;;;10.30;99.90;;;;;;1926317;73;25264;-92
2023/10/11 20:04:46;;;;;;;9.30;1.67;;;10.20;99.90;;;;;;1935807;72;25329;-90
2023/10/11 20:07:35;;;;;;;8.20;1.90;;;10.20;99.90;;;;;;1942985;72;25210;-91
2023/10/11 20:10:26;;;;;;;10.60;1.37;;;10.30;99.90;;;;;;1896075;75;25344;-90
2023/10/11 20:13:14;;;;;;;10.93;2.00;;;10.30;99.90;;;;;;1887048;75;25714;-90
2023/10/11 20:18:46;;;;;;;14.00;1.67;;;10.40;99.90;;;;;;1943845;72;27124;-89
2023/10/11 20:21:36;;;;;;;19.13;1.87;;;10.40;99.90;;;;;;1900740;75;25731;-91
2023/10/11 20:24:24;;;;;;;16.70;2.13;;;10.40;99.90;;;;;;1903954;75;25243;-91
2023/10/11 20:27:13;;;;;;;6.73;2.10;;;10.40;99.90;;;;;;1907748;75;25251;-90
2023/10/11 20:32:48;;;;;;;16.23;2.47;;;10.40;99.90;;;;;;2029268;69;27439;-90
2023/10/11 20:35:38;;;;;;;14.07;2.10;;;10.40;99.90;;;;;;1965216;72;25166;-90
2023/10/11 20:38:28;;;;;;;20.87;3.13;;;10.50;99.90;;;;;;1924701;74;25240;-90
2023/10/11 20:41:18;;;;;;;11.97;1.50;;;10.50;99.90;;;;;;1874456;76;25183;-89
2023/10/11 20:44:07;;;;;;;12.43;2.40;;;10.50;99.90;;;;;;1902294;74;25204;-92
2023/10/11 20:46:55;;;;;;;15.13;2.13;;;10.50;99.90;;;;;;1911367;74;25245;-92
2023/10/11 20:49:44;;;;;;;12.60;2.20;;;10.60;99.90;;;;;;1920623;74;25302;-90
2023/10/11 20:52:33;;;;;;;11.03;1.50;;;10.60;99.90;;;;;;1905126;74;25291;-90
2023/10/11 20:55:23;;;;;;;23.23;2.17;;;10.60;99.90;;;;;;1902097;75;25244;-90
2023/10/11 20:58:21;;;;;;;12.90;1.90;;;10.60;99.90;;;;;;1902652;74;27034;-90
2023/10/11 21:01:09;;;;;;;9.07;1.70;;;10.60;99.90;;;;;;1878241;75;25253;-90
2023/10/11 21:03:58;;;;;;;15.23;2.27;;;10.70;99.90;;;;;;1906305;74;25225;-90
2023/10/11 21:06:49;;;;;;;9.17;1.33;;;10.80;99.90;;;;;;1933175;72;25251;-90
2023/10/11 21:09:37;;;;;;;8.73;1.50;;;10.80;99.90;;;;;;1895613;74;25166;-91
2023/10/11 21:12:26;;;;;;;17.63;2.40;;;10.80;99.90;;;;;;1911004;73;25224;-90
2023/10/11 21:15:14;;;;;;;9.60;1.90;;;10.80;99.90;;;;;;1916106;74;25754;-90
2023/10/11 21:18:04;;;;;;;12.37;2.30;;;10.80;99.90;;;;;;1942799;72;25202;-90
2023/10/11 21:20:52;;;;;;;7.13;1.60;;;10.80;99.90;;;;;;1927622;74;25673;-90
2023/10/11 21:23:41;;;;;;;14.07;1.70;;;10.80;99.90;;;;;;1931315;74;25284;-90
2023/10/11 21:26:33;;;;;;;6.37;1.97;;;10.90;99.90;;;;;;1913756;74;25303;-90
2023/10/11 21:29:22;;;;;;;13.70;2.00;;;10.90;99.90;;;;;;1946891;72;25746;-90
2023/10/11 21:32:10;;;;;;;9.03;1.40;;;10.90;99.90;;;;;;1880299;73;25729;-90
2023/10/11 21:35:00;;;;;;;16.27;2.00;;;10.90;99.90;;;;;;1876616;75;25178;-90
2023/10/11 21:37:49;;;;;;;7.37;1.40;;;10.80;99.90;;;;;;1879800;75;25217;-90
2023/10/11 21:43:28;;;;;;;14.57;2.17;;;10.80;99.90;;;;;;1929580;72;27090;-90
2023/10/11 21:46:17;;;;;;;5.20;1.67;;;10.80;99.90;;;;;;1898396;75;25379;-89
2023/10/11 21:49:05;;;;;;;7.33;1.20;;;10.80;99.90;;;;;;1899228;74;25208;-90
2023/10/11 21:51:54;;;;;;;15.17;1.80;;;10.80;99.90;;;;;;1884608;75;25211;-90
2023/10/11 21:54:47;;;;;;;15.17;1.60;;;10.80;99.90;;;;;;1894202;74;25941;-89
2023/10/11 21:57:34;;;;;;;7.37;1.47;;;10.80;99.90;;;;;;1899834;75;25249;-92
2023/10/11 22:00:25;;;;;;;9.73;1.70;;;10.80;99.90;;;;;;1901229;75;25815;-92
2023/10/11 22:03:17;;;;;;;8.77;1.40;;;10.70;99.90;;;;;;1888781;75;25309;-92
2023/10/11 22:06:05;;;;;;;12.10;1.43;;;10.70;99.90;;;;;;1896488;75;25684;-92
2023/10/11 22:08:55;;;;;;;11.07;1.83;;;10.70;99.90;;;;;;1909107;74;25231;-92
2023/10/11 22:11:44;;;;;;;6.93;1.40;;;10.60;99.90;;;;;;1891707;75;25898;-92
2023/10/11 22:14:32;;;;;;;5.37;1.40;;;10.60;99.90;;;;;;1898215;75;25167;-92
2023/10/11 22:17:21;;;;;;;7.50;1.60;;;10.60;99.90;;;;;;1905303;75;25359;-92
2023/10/11 22:20:15;;;;;;;3.13;1.10;;;10.70;99.90;;;;;;1898111;75;25763;-92
2023/10/11 22:25:43;;;;;;;6.33;1.30;;;10.70;99.90;;;;;;1953674;72;27517;-90
2023/10/11 22:28:33;;;;;;;13.63;1.80;;;10.70;99.90;;;;;;1920866;73;25324;-90
2023/10/11 22:31:24;;;;;;;8.87;1.63;;;10.70;99.90;;;;;;1916739;73;25325;-91
2023/10/11 22:34:13;;;;;;;8.50;1.60;;;10.70;99.90;;;;;;1917712;73;25218;-90
2023/10/11 22:39:48;;;;;;;11.90;2.07;;;10.60;99.90;;;;;;1942977;72;27580;-90
2023/10/11 22:42:37;;;;;;;6.40;1.40;;;10.50;99.90;;;;;;1904510;73;25379;-90
2023/10/11 23:00:43;;;;;;;6.37;1.50;;;10.60;99.90;;;;;;1930725;72;27043;-90
2023/10/11 23:03:32;;;;;;;3.53;0.83;;;10.60;99.90;;;;;;1869009;76;25704;-89
2023/10/11 23:06:20;;;;;;;4.80;1.27;;;10.50;99.90;;;;;;1828964;76;25238;-89
2023/10/11 23:09:09;;;;;;;9.20;1.53;;;10.60;99.90;;;;;;1869298;76;25820;-92
2023/10/11 23:12:00;;;;;;;7.83;1.37;;;10.50;99.90;;;;;;1828755;76;25335;-91